Time,TemperatureF,DewpointF,PressureIn,WindDirection,WindDirectionDegrees,WindSpeedMPH,WindSpeedGustMPH,Humidity,HourlyPrecipIn,Conditions,Clouds,dailyrainin,SoftwareType,DateUTC
2013-01-16 00:03:00,16.0,15.0,30.19,SSW,195,0.0,1.0,94,0.00,,,0.00,,2013-01-16 05:03:00,
2013-01-16 00:12:00,16.0,15.0,30.19,SSW,195,0.0,1.0,94,0.00,,,0.00,,2013-01-16 05:12:00,
2013-01-16 00:22:00,16.0,14.0,30.17,SSW,195,0.0,0.0,91,0.00,,,0.00,,2013-01-16 05:22:00,
2013-01-16 00:33:00,16.0,14.0,30.17,SSW,195,0.0,0.0,91,0.00,,,0.00,,2013-01-16 05:33:00,
2013-01-16 00:42:00,16.0,14.0,30.17,SSW,195,0.0,0.0,91,0.00,,,0.00,,2013-01-16 05:42:00,
2013-01-16 00:53:00,15.0,13.0,30.15,SSW,195,0.0,0.0,92,0.00,,,0.00,,2013-01-16 05:53:00,
2013-01-16 01:03:00,15.0,13.0,30.15,SSW,195,0.0,0.0,92,0.00,,,0.00,,2013-01-16 06:03:00,
2013-01-16 01:12:00,15.0,13.0,30.15,SSW,195,0.0,0.0,92,0.00,,,0.00,,2013-01-16 06:12:00,
2013-01-16 01:22:00,15.0,13.0,30.15,SSW,195,0.0,0.0,92,0.00,,,0.00,,2013-01-16 06:22:00,
2013-01-16 01:32:00,14.0,12.0,30.14,SSW,195,0.0,0.0,93,0.00,,,0.00,,2013-01-16 06:32:00,
2013-01-16 01:43:00,14.0,12.0,30.14,SSW,195,0.0,0.0,93,0.00,,,0.00,,2013-01-16 06:43:00,
2013-01-16 01:53:00,14.0,13.0,30.13,SSW,195,0.0,0.0,94,0.00,,,0.00,,2013-01-16 06:53:00,
2013-01-16 02:02:00,15.0,14.0,30.12,SSE,165,0.0,1.0,95,0.00,,,0.00,,2013-01-16 07:02:00,
2013-01-16 02:12:00,15.0,14.0,30.12,SSE,165,0.0,1.0,95,0.00,,,0.00,,2013-01-16 07:12:00,
2013-01-16 02:22:00,15.0,13.0,30.11,SSE,165,0.0,0.0,93,0.00,,,0.00,,2013-01-16 07:22:00,
2013-01-16 02:33:00,14.0,12.0,30.11,SSE,165,0.0,0.0,92,0.00,,,0.00,,2013-01-16 07:33:00,
2013-01-16 02:42:00,14.0,12.0,30.11,SSE,165,0.0,0.0,92,0.00,,,0.00,,2013-01-16 07:42:00,
2013-01-16 02:52:00,13.0,11.0,30.11,SSE,165,0.0,0.0,93,0.00,,,0.00,,2013-01-16 07:52:00,
2013-01-16 03:03:00,13.0,11.0,30.11,SSE,165,0.0,0.0,93,0.00,,,0.00,,2013-01-16 08:03:00,
2013-01-16 03:12:00,13.0,11.0,30.11,SSE,165,0.0,0.0,93,0.00,,,0.00,,2013-01-16 08:12:00,
2013-01-16 03:22:00,12.0,10.0,30.11,SSE,165,0.0,0.0,93,0.00,,,0.00,,2013-01-16 08:22:00,
2013-01-16 03:32:00,12.0,10.0,30.10,SSE,165,0.0,0.0,93,0.00,,,0.00,,2013-01-16 08:32:00,
2013-01-16 03:42:00,12.0,10.0,30.10,SSE,165,0.0,0.0,93,0.00,,,0.00,,2013-01-16 08:42:00,
2013-01-16 03:52:00,12.0,10.0,30.09,SSE,165,0.0,0.0,93,0.00,,,0.00,,2013-01-16 08:52:00,
2013-01-16 04:02:00,12.0,11.0,30.09,SSE,165,0.0,0.0,94,0.00,,,0.00,,2013-01-16 09:02:00,
2013-01-16 04:12:00,12.0,11.0,30.09,SSE,165,0.0,0.0,94,0.00,,,0.00,,2013-01-16 09:12:00,
2013-01-16 04:22:00,13.0,12.0,30.09,SSE,165,0.0,1.0,94,0.00,,,0.00,,2013-01-16 09:22:00,
2013-01-16 04:32:00,13.0,12.0,30.08,SW,217,0.0,1.0,94,0.00,,,0.00,,2013-01-16 09:32:00,
2013-01-16 04:43:00,13.0,12.0,30.08,SW,217,0.0,1.0,94,0.00,,,0.00,,2013-01-16 09:43:00,
2013-01-16 04:52:00,14.0,13.0,30.07,SSW,203,0.0,1.0,94,0.00,,,0.00,,2013-01-16 09:52:00,
2013-01-16 05:03:00,14.0,12.0,30.07,WSW,250,0.0,1.0,93,0.00,,,0.00,,2013-01-16 10:03:00,
2013-01-16 05:12:00,14.0,12.0,30.07,WSW,250,0.0,1.0,93,0.00,,,0.00,,2013-01-16 10:12:00,
2013-01-16 05:22:00,15.0,13.0,30.06,SW,228,0.0,1.0,93,0.00,,,0.00,,2013-01-16 10:22:00,
2013-01-16 05:32:00,15.0,14.0,30.05,SSW,201,0.0,2.0,95,0.00,,,0.00,,2013-01-16 10:32:00,
2013-01-16 05:43:00,15.0,14.0,30.05,SSW,201,0.0,2.0,95,0.00,,,0.00,,2013-01-16 10:43:00,
2013-01-16 05:52:00,15.0,14.0,30.05,SW,222,1.0,3.0,94,0.00,,,0.00,,2013-01-16 10:52:00,
2013-01-16 06:02:00,15.0,13.0,30.05,SW,226,1.0,3.0,93,0.00,,,0.00,,2013-01-16 11:02:00,
2013-01-16 06:12:00,15.0,13.0,30.05,SW,226,1.0,3.0,93,0.00,,,0.00,,2013-01-16 11:12:00,
2013-01-16 06:23:00,16.0,15.0,30.03,SSE,162,1.0,4.0,94,0.00,,,0.00,,2013-01-16 11:23:00,
2013-01-16 06:33:00,17.0,15.0,30.02,South,173,1.0,4.0,93,0.00,,,0.00,,2013-01-16 11:33:00,
2013-01-16 06:43:00,17.0,15.0,30.02,South,173,1.0,4.0,93,0.00,,,0.00,,2013-01-16 11:43:00,
2013-01-16 06:52:00,17.0,15.0,30.01,SSW,197,0.0,3.0,93,0.00,,,0.00,,2013-01-16 11:52:00,
2013-01-16 07:03:00,17.0,15.0,30.01,SW,218,0.0,3.0,93,0.00,,,0.00,,2013-01-16 12:03:00,
2013-01-16 07:13:00,17.0,15.0,30.01,SW,218,0.0,3.0,93,0.00,,,0.00,,2013-01-16 12:13:00,
2013-01-16 07:22:00,17.0,15.0,30.00,SSW,193,0.0,2.0,93,0.00,,,0.00,,2013-01-16 12:22:00,
2013-01-16 07:33:00,17.0,15.0,29.99,WSW,245,0.0,5.0,93,0.00,,,0.00,,2013-01-16 12:33:00,
2013-01-16 07:43:00,17.0,15.0,29.99,WSW,245,0.0,5.0,93,0.00,,,0.00,,2013-01-16 12:43:00,
2013-01-16 07:53:00,17.0,15.0,29.99,WSW,245,0.0,5.0,93,0.00,,,0.00,,2013-01-16 12:53:00,
2013-01-16 08:03:00,17.0,15.0,29.98,SSE,168,1.0,3.0,92,0.00,,,0.00,,2013-01-16 13:03:00,
2013-01-16 08:13:00,17.0,15.0,29.98,SSE,168,1.0,3.0,92,0.00,,,0.00,,2013-01-16 13:13:00,
2013-01-16 08:23:00,17.0,15.0,29.97,SSW,195,1.0,3.0,92,0.00,,,0.00,,2013-01-16 13:23:00,
2013-01-16 08:33:00,17.0,15.0,29.97,SW,235,0.0,3.0,92,0.00,,,0.00,,2013-01-16 13:33:00,
2013-01-16 08:43:00,17.0,15.0,29.97,SW,235,0.0,3.0,92,0.00,,,0.00,,2013-01-16 13:43:00,
2013-01-16 08:52:00,17.0,15.0,29.97,SW,225,1.0,4.0,92,0.00,,,0.00,,2013-01-16 13:52:00,
2013-01-16 09:03:00,17.0,15.0,29.96,SE,139,0.0,4.0,91,0.00,,,0.00,,2013-01-16 14:03:00,
2013-01-16 09:12:00,17.0,15.0,29.96,SE,139,0.0,4.0,91,0.00,,,0.00,,2013-01-16 14:12:00,
2013-01-16 09:23:00,18.0,16.0,29.96,South,189,1.0,4.0,91,0.00,,,0.00,,2013-01-16 14:23:00,
2013-01-16 09:33:00,19.0,17.0,29.96,SW,222,1.0,5.0,90,0.00,,,0.00,,2013-01-16 14:33:00,
2013-01-16 09:43:00,19.0,17.0,29.96,SW,222,1.0,5.0,90,0.00,,,0.00,,2013-01-16 14:43:00,
2013-01-16 09:53:00,20.0,17.0,29.96,SSW,200,2.0,6.0,88,0.00,,,0.00,,2013-01-16 14:53:00,
2013-01-16 10:03:00,21.0,17.0,29.96,WSW,246,5.0,8.0,86,0.00,,,0.00,,2013-01-16 15:03:00,
2013-01-16 10:12:00,21.0,17.0,29.96,WSW,246,5.0,8.0,86,0.00,,,0.00,,2013-01-16 15:12:00,
2013-01-16 10:23:00,23.0,19.0,29.96,SSW,212,4.0,9.0,84,0.00,,,0.00,,2013-01-16 15:23:00,
2013-01-16 10:33:00,23.0,18.0,29.95,SW,214,5.0,13.0,82,0.00,,,0.00,,2013-01-16 15:33:00,
2013-01-16 10:43:00,23.0,18.0,29.95,SW,214,5.0,13.0,82,0.00,,,0.00,,2013-01-16 15:43:00,
2013-01-16 10:52:00,25.0,19.0,29.94,SW,224,5.0,10.0,79,0.00,,,0.00,,2013-01-16 15:52:00,
2013-01-16 11:04:00,26.0,19.0,29.94,SW,231,5.0,13.0,76,0.00,,,0.00,,2013-01-16 16:04:00,
2013-01-16 11:12:00,26.0,19.0,29.94,SW,231,5.0,13.0,76,0.00,,,0.00,,2013-01-16 16:12:00,
2013-01-16 11:23:00,26.0,19.0,29.93,SSW,195,8.0,14.0,75,0.00,,,0.00,,2013-01-16 16:23:00,
2013-01-16 11:33:00,27.0,20.0,29.91,SW,234,8.0,14.0,73,0.00,,,0.00,,2013-01-16 16:33:00,
2013-01-16 11:43:00,27.0,20.0,29.91,SW,234,8.0,14.0,73,0.00,,,0.00,,2013-01-16 16:43:00,
2013-01-16 11:52:00,28.0,21.0,29.90,WSW,250,6.0,12.0,74,0.00,,,0.00,,2013-01-16 16:52:00,
2013-01-16 12:03:00,29.0,22.0,29.88,South,179,6.0,14.0,75,0.00,,,0.00,,2013-01-16 17:03:00,
2013-01-16 12:12:00,29.0,22.0,29.88,South,179,6.0,14.0,75,0.00,,,0.00,,2013-01-16 17:12:00,
2013-01-16 12:23:00,29.0,22.0,29.87,WSW,238,9.0,16.0,74,0.00,,,0.00,,2013-01-16 17:23:00,
2013-01-16 12:33:00,30.0,22.0,29.86,West,260,10.0,17.0,73,0.00,,,0.00,,2013-01-16 17:33:00,
2013-01-16 12:44:00,30.0,22.0,29.86,West,260,10.0,17.0,73,0.00,,,0.00,,2013-01-16 17:44:00,
2013-01-16 12:53:00,30.0,22.0,29.85,WSW,253,12.0,21.0,71,0.00,,,0.00,,2013-01-16 17:53:00,
2013-01-16 13:03:00,30.0,21.0,29.85,WSW,256,11.0,18.0,69,0.00,,,0.00,,2013-01-16 18:03:00,
2013-01-16 13:13:00,30.0,21.0,29.85,WSW,256,11.0,18.0,69,0.00,,,0.00,,2013-01-16 18:13:00,
2013-01-16 13:23:00,31.0,22.0,29.83,West,264,7.0,19.0,69,0.00,,,0.00,,2013-01-16 18:23:00,
2013-01-16 13:33:00,31.0,21.0,29.83,SW,226,7.0,16.0,66,0.00,,,0.00,,2013-01-16 18:33:00,
2013-01-16 13:43:00,31.0,21.0,29.83,SW,226,7.0,16.0,66,0.00,,,0.00,,2013-01-16 18:43:00,
2013-01-16 13:53:00,32.0,20.0,29.82,SW,225,9.0,15.0,62,0.00,,,0.00,,2013-01-16 18:53:00,
2013-01-16 14:03:00,32.0,20.0,29.81,South,177,10.0,19.0,62,0.00,,,0.00,,2013-01-16 19:03:00,
2013-01-16 14:13:00,32.0,20.0,29.81,South,177,10.0,19.0,62,0.00,,,0.00,,2013-01-16 19:13:00,
2013-01-16 14:23:00,32.0,20.0,29.80,WSW,248,11.0,21.0,60,0.00,,,0.00,,2013-01-16 19:23:00,
2013-01-16 14:33:00,33.0,20.0,29.80,West,269,9.0,18.0,58,0.00,,,0.00,,2013-01-16 19:33:00,
2013-01-16 14:43:00,33.0,20.0,29.80,West,269,9.0,18.0,58,0.00,,,0.00,,2013-01-16 19:43:00,
2013-01-16 14:52:00,33.0,20.0,29.80,West,269,9.0,18.0,58,0.00,,,0.00,,2013-01-16 19:52:00,
2013-01-16 15:03:00,34.0,21.0,29.79,WSW,238,9.0,17.0,59,0.00,,,0.00,,2013-01-16 20:03:00,
2013-01-16 15:12:00,34.0,21.0,29.79,WSW,238,9.0,17.0,59,0.00,,,0.00,,2013-01-16 20:12:00,
2013-01-16 15:23:00,34.0,20.0,29.79,SW,222,7.0,17.0,57,0.00,,,0.00,,2013-01-16 20:23:00,
2013-01-16 15:33:00,34.0,20.0,29.79,West,267,11.0,22.0,55,0.00,,,0.00,,2013-01-16 20:33:00,
2013-01-16 15:43:00,34.0,20.0,29.79,West,267,11.0,22.0,55,0.00,,,0.00,,2013-01-16 20:43:00,
2013-01-16 15:53:00,34.0,20.0,29.79,SW,226,8.0,18.0,56,0.00,,,0.00,,2013-01-16 20:53:00,
2013-01-16 16:03:00,33.0,19.0,29.79,West,264,9.0,16.0,57,0.00,,,0.00,,2013-01-16 21:03:00,
2013-01-16 16:12:00,33.0,19.0,29.79,West,264,9.0,16.0,57,0.00,,,0.00,,2013-01-16 21:12:00,
2013-01-16 16:23:00,33.0,19.0,29.79,West,264,9.0,16.0,57,0.00,,,0.00,,2013-01-16 21:23:00,
2013-01-16 16:33:00,32.0,20.0,29.78,West,267,7.0,15.0,60,0.00,,,0.00,,2013-01-16 21:33:00,
2013-01-16 16:43:00,32.0,20.0,29.78,West,267,7.0,15.0,60,0.00,,,0.00,,2013-01-16 21:43:00,
2013-01-16 16:53:00,32.0,20.0,29.78,West,267,7.0,15.0,60,0.00,,,0.00,,2013-01-16 21:53:00,
2013-01-16 17:03:00,32.0,20.0,29.80,West,262,6.0,14.0,61,0.00,,,0.00,,2013-01-16 22:03:00,
2013-01-16 17:12:00,32.0,20.0,29.80,West,262,6.0,14.0,61,0.00,,,0.00,,2013-01-16 22:12:00,
2013-01-16 17:23:00,32.0,20.0,29.80,West,262,6.0,14.0,61,0.00,,,0.00,,2013-01-16 22:23:00,
2013-01-16 17:33:00,32.0,20.0,29.82,WSW,239,6.0,12.0,61,0.00,,,0.00,,2013-01-16 22:33:00,
2013-01-16 17:43:00,32.0,20.0,29.82,WSW,239,6.0,12.0,61,0.00,,,0.00,,2013-01-16 22:43:00,
2013-01-16 17:53:00,32.0,20.0,29.82,WSW,243,6.0,13.0,62,0.00,,,0.00,,2013-01-16 22:53:00,
2013-01-16 18:03:00,32.0,20.0,29.82,SW,233,6.0,13.0,61,0.00,,,0.00,,2013-01-16 23:03:00,
2013-01-16 18:12:00,32.0,20.0,29.82,SW,233,6.0,13.0,61,0.00,,,0.00,,2013-01-16 23:12:00,
2013-01-16 18:23:00,32.0,20.0,29.82,SW,233,6.0,13.0,61,0.00,,,0.00,,2013-01-16 23:23:00,
2013-01-16 18:33:00,33.0,21.0,29.83,West,267,7.0,18.0,61,0.00,,,0.00,,2013-01-16 23:33:00,
2013-01-16 18:43:00,33.0,21.0,29.83,West,267,7.0,18.0,61,0.00,,,0.00,,2013-01-16 23:43:00,
2013-01-16 18:53:00,33.0,21.0,29.83,West,259,9.0,15.0,62,0.00,,,0.00,,2013-01-16 23:53:00,
2013-01-16 19:02:00,33.0,22.0,29.84,WSW,246,9.0,17.0,63,0.00,,,0.00,,2013-01-17 00:02:00,
2013-01-16 19:12:00,33.0,22.0,29.84,WSW,246,9.0,17.0,63,0.00,,,0.00,,2013-01-17 00:12:00,
2013-01-16 19:22:00,33.0,23.0,29.85,WNW,294,7.0,15.0,65,0.00,,,0.00,,2013-01-17 00:22:00,
2013-01-16 19:32:00,33.0,23.0,29.86,West,260,6.0,12.0,67,0.00,,,0.00,,2013-01-17 00:32:00,
2013-01-16 19:42:00,33.0,23.0,29.86,West,260,6.0,12.0,67,0.00,,,0.00,,2013-01-17 00:42:00,
2013-01-16 19:52:00,33.0,24.0,29.86,West,281,7.0,14.0,68,0.00,,,0.00,,2013-01-17 00:52:00,
2013-01-16 20:02:00,33.0,24.0,29.86,WSW,252,7.0,19.0,70,0.00,,,0.00,,2013-01-17 01:02:00,
2013-01-16 20:12:00,33.0,24.0,29.86,WSW,252,7.0,19.0,70,0.00,,,0.00,,2013-01-17 01:12:00,
2013-01-16 20:22:00,33.0,26.0,29.87,WNW,293,9.0,18.0,74,0.00,,,0.00,,2013-01-17 01:22:00,
2013-01-16 20:33:00,33.0,26.0,29.88,West,263,7.0,17.0,76,0.00,,,0.00,,2013-01-17 01:33:00,
2013-01-16 20:43:00,33.0,26.0,29.88,West,263,7.0,17.0,76,0.00,,,0.00,,2013-01-17 01:43:00,
2013-01-16 20:52:00,33.0,27.0,29.88,West,276,8.0,16.0,78,0.00,,,0.00,,2013-01-17 01:52:00,
2013-01-16 21:02:00,33.0,28.0,29.88,WNW,291,7.0,14.0,80,0.00,,,0.00,,2013-01-17 02:02:00,
2013-01-16 21:12:00,33.0,28.0,29.88,WNW,291,7.0,14.0,80,0.00,,,0.00,,2013-01-17 02:12:00,
2013-01-16 21:22:00,33.0,28.0,29.89,West,262,8.0,16.0,82,0.00,,,0.00,,2013-01-17 02:22:00,
2013-01-16 21:32:00,33.0,28.0,29.90,West,274,7.0,16.0,83,0.00,,,0.00,,2013-01-17 02:32:00,
2013-01-16 21:43:00,33.0,28.0,29.90,West,274,7.0,16.0,83,0.00,,,0.00,,2013-01-17 02:43:00,
2013-01-16 21:52:00,33.0,28.0,29.90,West,274,7.0,16.0,83,0.00,,,0.00,,2013-01-17 02:52:00,
2013-01-16 22:03:00,33.0,29.0,29.90,NNW,328,5.0,14.0,84,0.00,,,0.00,,2013-01-17 03:03:00,
2013-01-16 22:12:00,33.0,29.0,29.90,NNW,328,5.0,14.0,84,0.00,,,0.00,,2013-01-17 03:12:00,
2013-01-16 22:22:00,32.0,28.0,29.91,West,265,4.0,15.0,85,0.00,,,0.00,,2013-01-17 03:22:00,
2013-01-16 22:33:00,32.0,28.0,29.91,West,273,4.0,11.0,86,0.00,,,0.00,,2013-01-17 03:33:00,
2013-01-16 22:43:00,32.0,28.0,29.91,West,273,4.0,11.0,86,0.00,,,0.00,,2013-01-17 03:43:00,
2013-01-16 22:52:00,32.0,28.0,29.92,West,273,5.0,11.0,86,0.00,,,0.00,,2013-01-17 03:52:00,
2013-01-16 23:02:00,32.0,28.0,29.92,West,273,5.0,11.0,86,0.00,,,0.00,,2013-01-17 04:02:00,
2013-01-16 23:12:00,32.0,29.0,29.92,WNW,288,4.0,10.0,87,0.00,,,0.00,,2013-01-17 04:12:00,
2013-01-16 23:22:00,32.0,29.0,29.92,WNW,288,4.0,10.0,87,0.00,,,0.00,,2013-01-17 04:22:00,
2013-01-16 23:33:00,32.0,29.0,29.92,West,262,6.0,10.0,87,0.00,,,0.00,,2013-01-17 04:33:00,
2013-01-16 23:42:00,32.0,29.0,29.92,West,262,6.0,10.0,87,0.00,,,0.00,,2013-01-17 04:42:00,
2013-01-16 23:52:00,32.0,29.0,29.93,WSW,255,4.0,11.0,87,0.00,,,0.00,,2013-01-17 04:52:00,